| time (UTC) | temp C | wind direction | speed KPH | gust KPH | rain 1hr cm | rain 24hr cm | rain mn cm | humidity % | barometer mb |
| 20260504081517 | 9 | 178 | 0.0 | 0.0 | 0.00 | 0.00 | 0.00 | 67 | 1013.8 |
| 20260504081009 | 9 | 178 | 0.0 | 0.0 | 0.00 | 0.00 | 0.00 | 66 | 1013.9 |
| 20260504080512 | 9 | 178 | 0.0 | 0.0 | 0.00 | 0.00 | 0.00 | 66 | 1014.0 |
| 20260504050556 | 8 | 178 | 0.0 | 0.0 | 0.00 | 0.00 | 0.00 | 70 | 1014.6 |
| 20260504045557 | 8 | 178 | 0.0 | 0.0 | 0.00 | 0.00 | 0.00 | 71 | 1014.4 |
| 20260504045053 | 8 | 178 | 0.0 | 0.0 | 0.00 | 0.00 | 0.00 | 71 | 1014.3 |
| 20260504044553 | 8 | 178 | 0.0 | 0.0 | 0.00 | 0.00 | 0.00 | 72 | 1014.3 |
| 20260504044052 | 8 | 178 | 0.0 | 0.0 | 0.00 | 0.00 | 0.00 | 71 | 1014.3 |
| 20260504043551 | 8 | 178 | 0.0 | 0.0 | 0.00 | 0.00 | 0.00 | 71 | 1014.2 |
| 20260504043110 | 8 | 178 | 0.0 | 0.0 | 0.00 | 0.00 | 0.00 | 70 | 1014.0 |
| 20260504042550 | 8 | 178 | 0.0 | 0.0 | 0.00 | 0.00 | 0.00 | 70 | 1014.1 |
| 20260504042052 | 8 | 178 | 0.0 | 0.0 | 0.00 | 0.00 | 0.00 | 70 | 1014.1 |
| 20260504041549 | 8 | 178 | 0.0 | 0.0 | 0.00 | 0.00 | 0.00 | 71 | 1014.1 |
| 20260504041048 | 7 | 178 | 0.0 | 0.0 | 0.00 | 0.00 | 0.00 | 71 | 1014.2 |
| 20260504040551 | 7 | 178 | 0.0 | 0.0 | 0.00 | 0.00 | 0.00 | 70 | 1014.2 |
| 20260504040047 | 7 | 178 | 0.0 | 0.0 | 0.00 | 0.00 | 0.00 | 71 | 1014.2 |
| 20260504035547 | 7 | 178 | 0.0 | 0.0 | 0.00 | 0.00 | 0.00 | 71 | 1014.2 |
| 20260504035047 | 7 | 178 | 0.0 | 0.0 | 0.00 | 0.00 | 0.00 | 71 | 1014.2 |
| 20260504034551 | 7 | 178 | 0.0 | 0.0 | 0.00 | 0.00 | 0.00 | 70 | 1014.2 |
| 20260504034047 | 7 | 178 | 0.0 | 0.0 | 0.00 | 0.00 | 0.00 | 70 | 1014.2 |
| 20260504033545 | 7 | 178 | 0.0 | 0.0 | 0.00 | 0.00 | 0.00 | 69 | 1014.1 |
| 20260504033046 | 8 | 178 | 0.0 | 0.0 | 0.00 | 0.00 | 0.00 | 68 | 1014.1 |
| 20260504032545 | 8 | 178 | 0.0 | 0.0 | 0.00 | 0.00 | 0.00 | 68 | 1014.2 |
| 20260504032046 | 8 | 178 | 0.0 | 0.0 | 0.00 | 0.00 | 0.00 | 69 | 1014.1 |
| 20260504031551 | 8 | 178 | 0.0 | 0.0 | 0.00 | 0.00 | 0.00 | 68 | 1014.1 |
| 20260504031047 | 8 | 178 | 0.0 | 0.0 | 0.00 | 0.00 | 0.00 | 67 | 1014.1 |
| 20260504030545 | 8 | 178 | 0.0 | 0.0 | 0.00 | 0.00 | 0.00 | 67 | 1014.1 |
| 20260504030101 | 8 | 178 | 0.0 | 0.0 | 0.00 | 0.00 | 0.00 | 67 | 1014.2 |
| 20260504025544 | 8 | 178 | 0.0 | 0.0 | 0.00 | 0.00 | 0.00 | 65 | 1014.2 |
| 20260504025044 | 8 | 178 | 0.0 | 0.0 | 0.00 | 0.00 | 0.00 | 64 | 1014.2 |
| 20260504024544 | 9 | 178 | 0.0 | 0.0 | 0.00 | 0.00 | 0.00 | 64 | 1014.1 |
| 20260504024044 | 9 | 178 | 0.0 | 0.0 | 0.00 | 0.00 | 0.00 | 63 | 1014.3 |
| 20260504023544 | 9 | 178 | 0.0 | 0.0 | 0.00 | 0.00 | 0.00 | 63 | 1014.2 |
| 20260504023044 | 9 | 178 | 0.0 | 0.0 | 0.00 | 0.00 | 0.00 | 61 | 1014.3 |
| 20260504022543 | 9 | 178 | 0.0 | 0.0 | 0.00 | 0.00 | 0.00 | 61 | 1014.1 |
| 20260504022045 | 10 | 178 | 0.0 | 0.0 | 0.00 | 0.00 | 0.00 | 60 | 1014.0 |
| 20260504021547 | 10 | 178 | 0.0 | 0.0 | 0.00 | 0.00 | 0.00 | 60 | 1014.1 |
| 20260504021045 | 10 | 178 | 0.0 | 0.0 | 0.00 | 0.00 | 0.00 | 59 | 1014.0 |
| 20260504020543 | 10 | 178 | 0.0 | 0.0 | 0.00 | 0.00 | 0.00 | 58 | 1013.9 |
| 20260504020042 | 10 | 178 | 0.0 | 0.0 | 0.00 | 0.00 | 0.00 | 57 | 1013.8 |
| 20260504015542 | 10 | 178 | 0.0 | 0.0 | 0.00 | 0.00 | 0.00 | 58 | 1013.7 |
| 20260504015042 | 10 | 178 | 0.0 | 0.0 | 0.00 | 0.00 | 0.00 | 58 | 1013.7 |
| 20260504014541 | 10 | 178 | 0.0 | 0.0 | 0.00 | 0.00 | 0.00 | 56 | 1013.7 |
| 20260504014041 | 10 | 178 | 0.0 | 0.0 | 0.00 | 0.00 | 0.00 | 56 | 1013.6 |
| 20260504013545 | 10 | 178 | 0.0 | 0.0 | 0.00 | 0.00 | 0.00 | 57 | 1013.5 |
| 20260504013047 | 11 | 178 | 0.0 | 0.0 | 0.00 | 0.00 | 0.00 | 56 | 1013.4 |
| 20260504012541 | 11 | 178 | 0.0 | 0.0 | 0.00 | 0.00 | 0.00 | 57 | 1013.5 |
| 20260504012041 | 11 | 178 | 0.0 | 0.0 | 0.00 | 0.00 | 0.00 | 56 | 1013.4 |
| 20260504011541 | 11 | 178 | 0.0 | 0.0 | 0.00 | 0.00 | 0.00 | 55 | 1013.3 |
| 20260504011044 | 11 | 178 | 0.0 | 0.0 | 0.00 | 0.00 | 0.00 | 53 | 1013.2 |
| 20260504010540 | 11 | 178 | 0.0 | 0.0 | 0.00 | 0.00 | 0.00 | 52 | 1013.3 |
| 20260504010051 | 11 | 178 | 0.0 | 1.6 | 0.00 | 0.00 | 0.00 | 52 | 1013.1 |
| 20260504005540 | 12 | 178 | 0.0 | 1.6 | 0.00 | 0.00 | 0.00 | 51 | 1013.1 |
| 20260504005040 | 12 | 178 | 0.0 | 1.6 | 0.00 | 0.00 | 0.00 | 49 | 1013.1 |
| 20260504004544 | 12 | 178 | 0.0 | 1.6 | 0.00 | 0.00 | 0.00 | 48 | 1013.0 |
| 20260504004041 | 12 | 178 | 0.0 | 0.0 | 0.00 | 0.00 | 0.00 | 48 | 1012.9 |
| 20260504003540 | 12 | 178 | 0.0 | 0.0 | 0.00 | 0.00 | 0.00 | 49 | 1012.9 |
| 20260504003039 | 13 | 178 | 0.0 | 0.0 | 0.00 | 0.00 | 0.00 | 46 | 1012.8 |
| 20260504002539 | 13 | 178 | 0.0 | 0.0 | 0.00 | 0.00 | 0.00 | 45 | 1012.8 |
| 20260504002039 | 13 | 178 | 0.0 | 0.0 | 0.00 | 0.00 | 0.00 | 43 | 1012.8 |
| 20260504001541 | 14 | 178 | 0.0 | 0.0 | 0.00 | 0.00 | 0.00 | 44 | 1012.8 |
| 20260504001039 | 14 | 178 | 0.0 | 0.0 | 0.00 | 0.00 | 0.00 | 42 | 1012.8 |
| 20260504000538 | 15 | 178 | 0.0 | 0.0 | 0.00 | 0.00 | 0.00 | 40 | 1012.9 |
| 20260504000038 | 15 | 178 | 0.0 | 0.0 | 0.00 | 0.00 | 0.00 | 39 | 1012.8 |
| 20260503235538 | 15 | 178 | 0.0 | 0.0 | 0.00 | 0.00 | 0.00 | 39 | 1012.8 |
| 20260503235038 | 15 | 178 | 0.0 | 0.0 | 0.00 | 0.00 | 0.00 | 37 | 1012.8 |
| 20260503234541 | 16 | 178 | 0.0 | 0.0 | 0.00 | 0.00 | 0.00 | 36 | 1012.8 |
| 20260503234041 | 16 | 178 | 0.0 | 0.0 | 0.00 | 0.00 | 0.00 | 35 | 1012.7 |
| 20260503233539 | 16 | 178 | 0.0 | 0.0 | 0.00 | 0.00 | 0.00 | 33 | 1012.8 |
| 20260503233037 | 16 | 178 | 0.0 | 3.2 | 0.00 | 0.00 | 0.00 | 32 | 1012.8 |
| 20260503232537 | 16 | 224 | 0.0 | 3.2 | 0.00 | 0.00 | 0.00 | 30 | 1012.7 |
| 20260503232037 | 16 | 224 | 0.0 | 3.2 | 0.00 | 0.00 | 0.00 | 30 | 1012.7 |
| 20260503231537 | 16 | 225 | 0.0 | 3.2 | 0.00 | 0.00 | 0.00 | 31 | 1012.7 |
| 20260503231040 | 16 | 225 | 0.0 | 3.2 | 0.00 | 0.00 | 0.00 | 30 | 1012.7 |
| 20260503230537 | 16 | 225 | 0.0 | 4.8 | 0.00 | 0.00 | 0.00 | 31 | 1012.6 |
| 20260503230057 | 16 | 225 | 0.0 | 4.8 | 0.00 | 0.00 | 0.00 | 29 | 1012.5 |
| 20260503225535 | 16 | 131 | 0.0 | 6.4 | 0.00 | 0.00 | 0.00 | 29 | 1012.6 |
| 20260503225035 | 17 | 209 | 1.6 | 6.4 | 0.00 | 0.00 | 0.00 | 28 | 1012.7 |
| 20260503224535 | 17 | 323 | 0.0 | 4.8 | 0.00 | 0.00 | 0.00 | 29 | 1012.6 |
| 20260503224036 | 17 | 168 | 1.6 | 8.0 | 0.00 | 0.00 | 0.00 | 28 | 1012.8 |
| 20260503223534 | 17 | 130 | 1.6 | 8.0 | 0.00 | 0.00 | 0.00 | 28 | 1012.7 |
| 20260503223034 | 17 | 134 | 1.6 | 6.4 | 0.00 | 0.00 | 0.00 | 29 | 1012.7 |
| 20260503222533 | 17 | 131 | 1.6 | 8.0 | 0.00 | 0.00 | 0.00 | 29 | 1012.7 |
| 20260503222033 | 17 | 282 | 1.6 | 8.0 | 0.00 | 0.00 | 0.00 | 27 | 1012.7 |
| 20260503221536 | 17 | 166 | 1.6 | 6.4 | 0.00 | 0.00 | 0.00 | 28 | 1012.8 |
| 20260503221035 | 17 | 5 | 0.0 | 8.0 | 0.00 | 0.00 | 0.00 | 27 | 1012.9 |
| 20260503220533 | 17 | 229 | 0.0 | 8.0 | 0.00 | 0.00 | 0.00 | 29 | 1012.9 |
| 20260503220037 | 17 | 184 | 0.0 | 12.9 | 0.00 | 0.00 | 0.00 | 29 | 1012.8 |
| 20260503215533 | 17 | 184 | 3.2 | 12.9 | 0.00 | 0.00 | 0.00 | 27 | 1012.8 |
| 20260503215032 | 17 | 155 | 1.6 | 6.4 | 0.00 | 0.00 | 0.00 | 28 | 1012.9 |
| 20260503214546 | 17 | 284 | 1.6 | 12.9 | 0.00 | 0.00 | 0.00 | 27 | 1012.9 |
| 20260503214033 | 17 | 145 | 3.2 | 12.9 | 0.00 | 0.00 | 0.00 | 29 | 1013.0 |
| 20260503213533 | 17 | 320 | 0.0 | 6.4 | 0.00 | 0.00 | 0.00 | 29 | 1013.0 |
| 20260503213034 | 17 | 202 | 1.6 | 8.0 | 0.00 | 0.00 | 0.00 | 31 | 1013.1 |
| 20260503212532 | 17 | 160 | 1.6 | 8.0 | 0.00 | 0.00 | 0.00 | 33 | 1013.1 |
| 20260503212031 | 18 | 205 | 0.0 | 6.4 | 0.00 | 0.00 | 0.00 | 32 | 1013.2 |
| 20260503211532 | 18 | 226 | 1.6 | 9.7 | 0.00 | 0.00 | 0.00 | 27 | 1013.2 |
| 20260503211031 | 18 | 13 | 0.0 | 9.7 | 0.00 | 0.00 | 0.00 | 25 | 1013.2 |
| 20260503210531 | 18 | 220 | 0.0 | 8.0 | 0.00 | 0.00 | 0.00 | 25 | 1013.2 |
| 20260503210031 | 18 | 171 | 0.0 | 4.8 | 0.00 | 0.00 | 0.00 | 26 | 1013.3 |
| 20260503205531 | 18 | 24 | 1.6 | 8.0 | 0.00 | 0.00 | 0.00 | 27 | 1013.3 |
| 20260503205031 | 18 | 163 | 1.6 | 8.0 | 0.00 | 0.00 | 0.00 | 27 | 1013.3 |
| 20260503204531 | 18 | 231 | 1.6 | 3.2 | 0.00 | 0.00 | 0.00 | 27 | 1013.3 |
| 20260503204030 | 18 | 236 | 1.6 | 4.8 | 0.00 | 0.00 | 0.00 | 26 | 1013.3 |
| 20260503203529 | 18 | 158 | 0.0 | 8.0 | 0.00 | 0.00 | 0.00 | 26 | 1013.5 |
| 20260503203029 | 18 | 169 | 3.2 | 8.0 | 0.00 | 0.00 | 0.00 | 24 | 1013.6 |
| 20260503202529 | 18 | 229 | 1.6 | 6.4 | 0.00 | 0.00 | 0.00 | 26 | 1013.6 |
| 20260503202029 | 18 | 250 | 1.6 | 4.8 | 0.00 | 0.00 | 0.00 | 27 | 1013.6 |
| 20260503201528 | 19 | 221 | 0.0 | 8.0 | 0.00 | 0.00 | 0.00 | 25 | 1013.7 |
| 20260503201028 | 19 | 164 | 1.6 | 8.0 | 0.00 | 0.00 | 0.00 | 27 | 1013.7 |
| 20260503200528 | 19 | 141 | 1.6 | 8.0 | 0.00 | 0.00 | 0.00 | 26 | 1013.7 |
| 20260503200029 | 19 | 229 | 0.0 | 4.8 | 0.00 | 0.00 | 0.00 | 26 | 1013.9 |
| 20260503195528 | 20 | 14 | 1.6 | 4.8 | 0.00 | 0.00 | 0.00 | 24 | 1013.9 |
| 20260503195027 | 20 | 157 | 0.0 | 9.7 | 0.00 | 0.00 | 0.00 | 26 | 1013.9 |
| 20260503194529 | 20 | 157 | 1.6 | 9.7 | 0.00 | 0.00 | 0.00 | 24 | 1014.2 |
| 20260503194027 | 20 | 209 | 1.6 | 9.7 | 0.00 | 0.00 | 0.00 | 25 | 1014.4 |
| 20260503193527 | 20 | 203 | 1.6 | 16.1 | 0.00 | 0.00 | 0.00 | 24 | 1014.5 |
| 20260503193028 | 20 | 49 | 3.2 | 16.1 | 0.00 | 0.00 | 0.00 | 25 | 1014.4 |
| 20260503192527 | 20 | 202 | 1.6 | 6.4 | 0.00 | 0.00 | 0.00 | 25 | 1014.4 |
| 20260503192029 | 20 | 175 | 1.6 | 14.5 | 0.00 | 0.00 | 0.00 | 24 | 1014.5 |
| 20260503191526 | 20 | 20 | 3.2 | 14.5 | 0.00 | 0.00 | 0.00 | 25 | 1014.6 |
| 20260503191026 | 20 | 360 | 0.0 | 9.7 | 0.00 | 0.00 | 0.00 | 25 | 1014.5 |
| 20260503190527 | 20 | 182 | 1.6 | 9.7 | 0.00 | 0.00 | 0.00 | 25 | 1014.7 |
| 20260503190037 | 20 | 192 | 1.6 | 14.5 | 0.00 | 0.00 | 0.00 | 25 | 1014.7 |
| 20260503185525 | 20 | 28 | 0.0 | 14.5 | 0.00 | 0.00 | 0.00 | 24 | 1014.9 |
| 20260503185029 | 21 | 252 | 1.6 | 8.0 | 0.00 | 0.00 | 0.00 | 25 | 1015.0 |
| 20260503184525 | 20 | 355 | 1.6 | 8.0 | 0.00 | 0.00 | 0.00 | 26 | 1015.4 |
| 20260503184022 | 20 | 178 | 0.0 | 8.0 | 0.00 | 0.00 | 0.00 | 26 | 1015.2 |
| 20260503183522 | 20 | 165 | 3.2 | 8.0 | 0.00 | 0.00 | 0.00 | 26 | 1015.5 |
| 20260503183022 | 20 | 175 | 1.6 | 8.0 | 0.00 | 0.00 | 0.00 | 28 | 1015.5 |
| 20260503182521 | 20 | 145 | 1.6 | 4.8 | 0.00 | 0.00 | 0.00 | 27 | 1015.5 |
| 20260503182022 | 20 | 211 | 0.0 | 8.0 | 0.00 | 0.00 | 0.00 | 25 | 1015.6 |
| 20260503181541 | 20 | 193 | 1.6 | 9.7 | 0.00 | 0.00 | 0.00 | 25 | 1015.7 |
| 20260503181020 | 20 | 215 | 3.2 | 9.7 | 0.00 | 0.00 | 0.00 | 26 | 1015.8 |
| 20260503180519 | 20 | 111 | 1.6 | 6.4 | 0.00 | 0.00 | 0.00 | 27 | 1015.8 |
| 20260503180031 | 20 | 344 | 1.6 | 9.7 | 0.00 | 0.00 | 0.00 | 27 | 1015.9 |
| 20260503175521 | 19 | 134 | 1.6 | 9.7 | 0.00 | 0.00 | 0.00 | 27 | 1016.0 |
| 20260503175015 | 19 | 146 | 1.6 | 8.0 | 0.00 | 0.00 | 0.00 | 28 | 1015.9 |
| 20260503174514 | 19 | 205 | 1.6 | 8.0 | 0.00 | 0.00 | 0.00 | 29 | 1016.1 |
| 20260503174015 | 18 | 140 | 3.2 | 11.3 | 0.00 | 0.00 | 0.00 | 28 | 1016.1 |
| 20260503173511 | 18 | 141 | 3.2 | 11.3 | 0.00 | 0.00 | 0.00 | 29 | 1016.2 |
| 20260503173010 | 18 | 174 | 4.8 | 11.3 | 0.00 | 0.00 | 0.00 | 29 | 1016.2 |
| 20260503172508 | 18 | 154 | 1.6 | 11.3 | 0.00 | 0.00 | 0.00 | 29 | 1016.2 |
| 20260503172007 | 17 | 207 | 3.2 | 11.3 | 0.00 | 0.00 | 0.00 | 30 | 1016.4 |
| 20260503171506 | 17 | 58 | 1.6 | 9.7 | 0.00 | 0.00 | 0.00 | 29 | 1016.5 |
| 20260503171004 | 17 | 142 | 1.6 | 9.7 | 0.00 | 0.00 | 0.00 | 30 | 1016.9 |
| 20260503170503 | 17 | 14 | 3.2 | 11.3 | 0.00 | 0.00 | 0.00 | 31 | 1016.8 |
| 20260503150535 | 10 | 13 | 3.2 | 12.9 | 0.00 | 0.00 | 0.00 | 42 | 1018.0 |
| 20260503131014 | 7 | 169 | 1.6 | 9.7 | 0.00 | 0.00 | 0.00 | 56 | 1018.1 |
| 20260503130512 | 7 | 142 | 1.6 | 8.0 | 0.00 | 0.00 | 0.00 | 56 | 1017.9 |
| 20260503110554 | 3 | 127 | 0.0 | 1.6 | 0.00 | 0.00 | 0.00 | 78 | 1016.7 |